Mindoro Star — V7RE6 — position and weather

sailwx.info

Track history (hours):
 
Tides and Currents Weather Stations Pressure Air Temp Water Temp Dewpoint Dewpoint Depression Visibility Wind Speed Wind Dir Waves Ship Positions

Mindoro Star

Last reported at 2015-Apr-21 06:21 UTC. Time now 2015-Apr-27 20:45 UTC.
Position N 47°18' W 002°06'.

Length 238 m; draft 8.1 m.

Type: Tanker. MMSI: 538003490.

Date/timePositionNaut miles runAvg speedWind from/ knotsBaromVisibWave heightAir tempDewpointWater temp
2015-Apr-21 06:21N 47°18' W 002°06'0 0.0
2015-Apr-21 05:19N 47°18' W 002°06'0 0.0
2015-Apr-21 04:19N 47°18' W 002°06'0 0.0
2015-Apr-21 03:30N 47°18' W 002°06'0 0.0
2015-Apr-21 02:33N 47°18' W 002°06'0 0.0
2015-Apr-21 01:30N 47°18' W 002°06'0 0.0
2015-Apr-21 00:33N 47°18' W 002°06'0 0.0
2015-Apr-20 23:27N 47°18' W 002°06'  
2015-Apr-16 11:06N 50°04' W 002°37'1117.0
2015-Apr-16 10:26N 50°07' W 002°20'1416.3
2015-Apr-16 09:33N 50°10' W 001°58'9513.1
2015-Apr-16 02:17N 50°35' E 000°26'1115.3
2015-Apr-16 01:33N 50°40' E 000°42'1615.1
2015-Apr-16 00:30N 50°50' E 001°01'1813.7
2015-Apr-15 23:12N 51°02' E 001°23'812.5
2015-Apr-15 22:34N 51°07' E 001°33'1212.1
2015-Apr-15 21:33N 51°15' E 001°47'1313.2
2015-Apr-15 20:33N 51°26' E 001°58'2114.7
2015-Apr-15 19:06N 51°42' E 002°21'5114.0
2015-Apr-15 15:27N 52°04' E 003°36'1212.0
2015-Apr-15 14:26N 52°02' E 003°56'1112.6
2015-Apr-15 13:33N 51°57' E 004°12'7 6.8
2015-Apr-15 12:32N 51°54' E 004°22'0 0.0
2015-Apr-15 11:29N 51°54' E 004°22'0 0.0
2015-Apr-15 10:32N 51°54' E 004°22'0 0.0
2015-Apr-15 09:32N 51°54' E 004°22'0 0.0
2015-Apr-15 08:32N 51°54' E 004°22'0 0.0
2015-Apr-15 07:29N 51°54' E 004°22'0 0.0
2015-Apr-15 06:32N 51°54' E 004°22'0 0.0
2015-Apr-15 05:29N 51°54' E 004°22'0 0.0
2015-Apr-15 04:32N 51°54' E 004°22'0 0.0
2015-Apr-15 03:32N 51°54' E 004°22'0 0.0
2015-Apr-15 02:29N 51°54' E 004°22'0 0.0
2015-Apr-15 01:23N 51°54' E 004°22'0 0.0
2015-Apr-15 00:32N 51°54' E 004°22'0 0.0
2015-Apr-14 23:26N 51°54' E 004°22'0 0.0
2015-Apr-14 22:32N 51°54' E 004°22'0 0.0
2015-Apr-14 21:32N 51°54' E 004°22'0 0.0
2015-Apr-14 20:32N 51°54' E 004°22'0 0.0
2015-Apr-14 19:32N 51°54' E 004°22'0 0.0
2015-Apr-14 18:32N 51°54' E 004°22'0 0.0
2015-Apr-14 17:23N 51°54' E 004°22'0 0.0
2015-Apr-14 16:29N 51°54' E 004°22'0 0.0
2015-Apr-14 15:32N 51°54' E 004°22'0 0.0
2015-Apr-14 14:29N 51°54' E 004°22'0 0.0
2015-Apr-14 13:32N 51°54' E 004°22'0 0.0
2015-Apr-14 12:29N 51°54' E 004°22'0 0.0
2015-Apr-14 11:32N 51°54' E 004°22'0 0.0
2015-Apr-14 10:32N 51°54' E 004°22'0 0.0
2015-Apr-14 08:32N 51°54' E 004°22'0 0.0
2015-Apr-14 07:20N 51°54' E 004°22'0 0.0
2015-Apr-14 06:17N 51°54' E 004°22'0 0.0
2015-Apr-14 05:29N 51°54' E 004°22'0 0.0
2015-Apr-14 04:32N 51°54' E 004°22'0 0.0
2015-Apr-14 03:32N 51°54' E 004°22'0 0.0
2015-Apr-14 02:32N 51°54' E 004°22'0 0.0
2015-Apr-14 01:29N 51°54' E 004°22'0 0.0
2015-Apr-14 00:26N 51°54' E 004°22'0 0.0
2015-Apr-13 23:32N 51°54' E 004°22'0 0.0
2015-Apr-13 22:33N 51°54' E 004°22'4 4.5
2015-Apr-13 21:33N 51°55' E 004°15'1111.2
2015-Apr-13 20:33N 51°60' E 003°59'1110.8
2015-Apr-13 19:33N 51°57' E 003°42'0 0.1
2015-Apr-13 17:28N 51°57' E 003°42'0 0.0
2015-Apr-13 12:10N 51°57' E 003°42'0 0.0
2015-Apr-13 09:16N 51°57' E 003°42'0 0.0
2015-Apr-13 00:04N 51°57' E 003°42'0 0.0
2015-Apr-12 22:19N 51°57' E 003°42'0 0.1
2015-Apr-12 21:16N 51°57' E 003°42'0 0.0
2015-Apr-12 15:07N 51°57' E 003°42'0 0.1
2015-Apr-12 13:10N 51°57' E 003°42'7 2.0
2015-Apr-12 09:26N 51°57' E 003°30'16 7.7
2015-Apr-12 07:22N 51°43' E 003°18'911.3
2015-Apr-12 06:32N 51°34' E 003°25'1110.9
2015-Apr-12 05:33N 51°26' E 003°36'8 8.3
2015-Apr-12 04:33N 51°21' E 003°47'9 9.1
2015-Apr-12 03:34N 51°26' E 003°59'8 8.4
2015-Apr-12 02:33N 51°24' E 004°12'4 4.5
2015-Apr-12 01:33N 51°21' E 004°17'1 1.0
2015-Apr-12 00:32N 51°20' E 004°18'0 0.0
2015-Apr-11 09:33N 51°20' E 004°18'3 3.1
2015-Apr-11 08:33N 51°17' E 004°21'  
Track history (hours):
 
Tides and Currents Weather Stations Pressure Air Temp Water Temp Dewpoint Dewpoint Depression Visibility Wind Speed Wind Dir Waves Ship Positions

Mindoro Star

Last reported at 2015-Apr-21 06:21 UTC. Time now 2015-Apr-27 20:45 UTC.
Position N 47°18' W 002°06'.

Length 238 m; draft 8.1 m.

Type: Tanker. MMSI: 538003490.

Date/timePositionNaut miles runAvg speedWind from/ knotsBaromVisibWave heightAir tempDewpointWater temp
2015-Apr-21 06:21N 47°18' W 002°06'0 0.0
2015-Apr-21 05:19N 47°18' W 002°06'0 0.0
2015-Apr-21 04:19N 47°18' W 002°06'0 0.0
2015-Apr-21 03:30N 47°18' W 002°06'0 0.0
2015-Apr-21 02:33N 47°18' W 002°06'0 0.0
2015-Apr-21 01:30N 47°18' W 002°06'0 0.0
2015-Apr-21 00:33N 47°18' W 002°06'0 0.0
2015-Apr-20 23:27N 47°18' W 002°06'  
2015-Apr-16 11:06N 50°04' W 002°37'1117.0
2015-Apr-16 10:26N 50°07' W 002°20'1416.3
2015-Apr-16 09:33N 50°10' W 001°58'9513.1
2015-Apr-16 02:17N 50°35' E 000°26'1115.3
2015-Apr-16 01:33N 50°40' E 000°42'1615.1
2015-Apr-16 00:30N 50°50' E 001°01'1813.7
2015-Apr-15 23:12N 51°02' E 001°23'812.5
2015-Apr-15 22:34N 51°07' E 001°33'1212.1
2015-Apr-15 21:33N 51°15' E 001°47'1313.2
2015-Apr-15 20:33N 51°26' E 001°58'2114.7
2015-Apr-15 19:06N 51°42' E 002°21'5114.0
2015-Apr-15 15:27N 52°04' E 003°36'1212.0
2015-Apr-15 14:26N 52°02' E 003°56'1112.6
2015-Apr-15 13:33N 51°57' E 004°12'7 6.8
2015-Apr-15 12:32N 51°54' E 004°22'0 0.0
2015-Apr-15 11:29N 51°54' E 004°22'0 0.0
2015-Apr-15 10:32N 51°54' E 004°22'0 0.0
2015-Apr-15 09:32N 51°54' E 004°22'0 0.0
2015-Apr-15 08:32N 51°54' E 004°22'0 0.0
2015-Apr-15 07:29N 51°54' E 004°22'0 0.0
2015-Apr-15 06:32N 51°54' E 004°22'0 0.0
2015-Apr-15 05:29N 51°54' E 004°22'0 0.0
2015-Apr-15 04:32N 51°54' E 004°22'0 0.0
2015-Apr-15 03:32N 51°54' E 004°22'0 0.0
2015-Apr-15 02:29N 51°54' E 004°22'0 0.0
2015-Apr-15 01:23N 51°54' E 004°22'0 0.0
2015-Apr-15 00:32N 51°54' E 004°22'0 0.0
2015-Apr-14 23:26N 51°54' E 004°22'0 0.0
2015-Apr-14 22:32N 51°54' E 004°22'0 0.0
2015-Apr-14 21:32N 51°54' E 004°22'0 0.0
2015-Apr-14 20:32N 51°54' E 004°22'0 0.0
2015-Apr-14 19:32N 51°54' E 004°22'0 0.0
2015-Apr-14 18:32N 51°54' E 004°22'0 0.0
2015-Apr-14 17:23N 51°54' E 004°22'0 0.0
2015-Apr-14 16:29N 51°54' E 004°22'0 0.0
2015-Apr-14 15:32N 51°54' E 004°22'0 0.0
2015-Apr-14 14:29N 51°54' E 004°22'0 0.0
2015-Apr-14 13:32N 51°54' E 004°22'0 0.0
2015-Apr-14 12:29N 51°54' E 004°22'0 0.0
2015-Apr-14 11:32N 51°54' E 004°22'0 0.0
2015-Apr-14 10:32N 51°54' E 004°22'0 0.0
2015-Apr-14 08:32N 51°54' E 004°22'0 0.0
2015-Apr-14 07:20N 51°54' E 004°22'0 0.0
2015-Apr-14 06:17N 51°54' E 004°22'0 0.0
2015-Apr-14 05:29N 51°54' E 004°22'0 0.0
2015-Apr-14 04:32N 51°54' E 004°22'0 0.0
2015-Apr-14 03:32N 51°54' E 004°22'0 0.0
2015-Apr-14 02:32N 51°54' E 004°22'0 0.0
2015-Apr-14 01:29N 51°54' E 004°22'0 0.0
2015-Apr-14 00:26N 51°54' E 004°22'0 0.0
2015-Apr-13 23:32N 51°54' E 004°22'0 0.0
2015-Apr-13 22:33N 51°54' E 004°22'4 4.5
2015-Apr-13 21:33N 51°55' E 004°15'1111.2
2015-Apr-13 20:33N 51°60' E 003°59'1110.8
2015-Apr-13 19:33N 51°57' E 003°42'0 0.1
2015-Apr-13 17:28N 51°57' E 003°42'0 0.0
2015-Apr-13 12:10N 51°57' E 003°42'0 0.0
2015-Apr-13 09:16N 51°57' E 003°42'0 0.0
2015-Apr-13 00:04N 51°57' E 003°42'0 0.0
2015-Apr-12 22:19N 51°57' E 003°42'0 0.1
2015-Apr-12 21:16N 51°57' E 003°42'0 0.0
2015-Apr-12 15:07N 51°57' E 003°42'0 0.1
2015-Apr-12 13:10N 51°57' E 003°42'7 2.0
2015-Apr-12 09:26N 51°57' E 003°30'16 7.7
2015-Apr-12 07:22N 51°43' E 003°18'911.3
2015-Apr-12 06:32N 51°34' E 003°25'1110.9
2015-Apr-12 05:33N 51°26' E 003°36'8 8.3
2015-Apr-12 04:33N 51°21' E 003°47'9 9.1
2015-Apr-12 03:34N 51°26' E 003°59'8 8.4
2015-Apr-12 02:33N 51°24' E 004°12'4 4.5
2015-Apr-12 01:33N 51°21' E 004°17'1 1.0
2015-Apr-12 00:32N 51°20' E 004°18'0 0.0
2015-Apr-11 09:33N 51°20' E 004°18'3 3.1
2015-Apr-11 08:33N 51°17' E 004°21'  

Dump ship's entire track history